sensor_id;sensor_type;location;lat;lon;timestamp;temperature;humidity
14733;DHT22;7457;50.960;6.830;2023-06-05T00:01:59;13.00;61.10
14733;DHT22;7457;50.960;6.830;2023-06-05T00:04:25;13.00;61.00
14733;DHT22;7457;50.960;6.830;2023-06-05T00:06:50;13.00;61.10
14733;DHT22;7457;50.960;6.830;2023-06-05T00:09:17;13.00;61.10
14733;DHT22;7457;50.960;6.830;2023-06-05T00:11:42;13.00;61.10
14733;DHT22;7457;50.960;6.830;2023-06-05T00:14:08;13.00;61.20
14733;DHT22;7457;50.960;6.830;2023-06-05T00:16:34;13.00;61.10
14733;DHT22;7457;50.960;6.830;2023-06-05T00:19:01;13.00;61.10
14733;DHT22;7457;50.960;6.830;2023-06-05T00:21:26;13.10;61.00
14733;DHT22;7457;50.960;6.830;2023-06-05T00:23:52;13.10;61.00
14733;DHT22;7457;50.960;6.830;2023-06-05T00:26:17;13.10;60.90
14733;DHT22;7457;50.960;6.830;2023-06-05T00:28:43;13.00;60.90
14733;DHT22;7457;50.960;6.830;2023-06-05T00:31:09;13.00;61.00
14733;DHT22;7457;50.960;6.830;2023-06-05T00:33:35;12.90;61.20
14733;DHT22;7457;50.960;6.830;2023-06-05T00:36:00;12.80;61.50
14733;DHT22;7457;50.960;6.830;2023-06-05T00:38:26;12.80;61.60
14733;DHT22;7457;50.960;6.830;2023-06-05T00:40:51;12.70;61.60
14733;DHT22;7457;50.960;6.830;2023-06-05T00:43:17;12.70;61.80
14733;DHT22;7457;50.960;6.830;2023-06-05T00:45:43;12.70;61.90
14733;DHT22;7457;50.960;6.830;2023-06-05T00:48:08;12.70;62.00
14733;DHT22;7457;50.960;6.830;2023-06-05T00:50:36;12.70;62.10
14733;DHT22;7457;50.960;6.830;2023-06-05T00:53:03;12.70;62.10
14733;DHT22;7457;50.960;6.830;2023-06-05T00:55:31;12.70;62.30
14733;DHT22;7457;50.960;6.830;2023-06-05T00:57:57;12.70;62.20
14733;DHT22;7457;50.960;6.830;2023-06-05T01:00:23;12.70;62.10
14733;DHT22;7457;50.960;6.830;2023-06-05T01:02:50;12.70;62.10
14733;DHT22;7457;50.960;6.830;2023-06-05T01:05:19;12.60;62.10
14733;DHT22;7457;50.960;6.830;2023-06-05T01:07:45;12.60;62.20
14733;DHT22;7457;50.960;6.830;2023-06-05T01:10:13;12.60;62.30
14733;DHT22;7457;50.960;6.830;2023-06-05T01:12:50;12.50;62.40
14733;DHT22;7457;50.960;6.830;2023-06-05T01:15:18;12.50;62.60
14733;DHT22;7457;50.960;6.830;2023-06-05T01:17:58;12.40;62.50
14733;DHT22;7457;50.960;6.830;2023-06-05T01:20:35;12.40;62.50
14733;DHT22;7457;50.960;6.830;2023-06-05T01:23:06;12.40;62.80
14733;DHT22;7457;50.960;6.830;2023-06-05T01:25:32;12.30;62.90
14733;DHT22;7457;50.960;6.830;2023-06-05T01:33:17;12.10;63.40
14733;DHT22;7457;50.960;6.830;2023-06-05T01:35:45;12.10;63.50
14733;DHT22;7457;50.960;6.830;2023-06-05T01:38:17;12.00;63.60
14733;DHT22;7457;50.960;6.830;2023-06-05T01:40:45;12.00;63.90
14733;DHT22;7457;50.960;6.830;2023-06-05T01:43:12;11.90;64.10
14733;DHT22;7457;50.960;6.830;2023-06-05T01:45:39;11.90;64.20
14733;DHT22;7457;50.960;6.830;2023-06-05T01:48:08;11.90;64.20
14733;DHT22;7457;50.960;6.830;2023-06-05T01:50:38;12.00;64.20
14733;DHT22;7457;50.960;6.830;2023-06-05T01:53:06;12.00;64.20
14733;DHT22;7457;50.960;6.830;2023-06-05T01:55:32;12.00;64.20
14733;DHT22;7457;50.960;6.830;2023-06-05T01:57:59;12.00;64.20
14733;DHT22;7457;50.960;6.830;2023-06-05T02:00:25;12.10;64.20
14733;DHT22;7457;50.960;6.830;2023-06-05T02:02:50;12.00;64.20
14733;DHT22;7457;50.960;6.830;2023-06-05T02:05:17;12.00;64.30
14733;DHT22;7457;50.960;6.830;2023-06-05T02:07:46;12.00;64.50
14733;DHT22;7457;50.960;6.830;2023-06-05T02:10:19;12.00;64.70
14733;DHT22;7457;50.960;6.830;2023-06-05T02:12:45;12.00;64.80
14733;DHT22;7457;50.960;6.830;2023-06-05T02:15:11;11.90;65.00
14733;DHT22;7457;50.960;6.830;2023-06-05T02:17:41;11.90;65.20
14733;DHT22;7457;50.960;6.830;2023-06-05T02:20:13;11.90;65.60
14733;DHT22;7457;50.960;6.830;2023-06-05T02:22:41;11.80;65.90
14733;DHT22;7457;50.960;6.830;2023-06-05T02:25:08;11.80;66.20
14733;DHT22;7457;50.960;6.830;2023-06-05T02:27:36;11.80;66.60
14733;DHT22;7457;50.960;6.830;2023-06-05T02:30:01;11.70;66.70
14733;DHT22;7457;50.960;6.830;2023-06-05T02:32:27;11.70;67.00
14733;DHT22;7457;50.960;6.830;2023-06-05T02:34:55;11.70;67.20
14733;DHT22;7457;50.960;6.830;2023-06-05T02:37:25;11.60;67.40
14733;DHT22;7457;50.960;6.830;2023-06-05T02:39:51;11.60;67.70
14733;DHT22;7457;50.960;6.830;2023-06-05T02:42:17;11.60;67.90
14733;DHT22;7457;50.960;6.830;2023-06-05T02:44:44;11.60;68.10
14733;DHT22;7457;50.960;6.830;2023-06-05T02:47:10;11.60;68.30
14733;DHT22;7457;50.960;6.830;2023-06-05T02:49:36;11.60;68.50
14733;DHT22;7457;50.960;6.830;2023-06-05T02:52:03;11.60;68.70
14733;DHT22;7457;50.960;6.830;2023-06-05T02:54:28;11.60;69.00
14733;DHT22;7457;50.960;6.830;2023-06-05T02:56:54;11.50;69.20
14733;DHT22;7457;50.960;6.830;2023-06-05T02:59:22;11.50;69.40
14733;DHT22;7457;50.960;6.830;2023-06-05T03:01:50;11.50;69.70
14733;DHT22;7457;50.960;6.830;2023-06-05T03:04:16;11.40;70.10
14733;DHT22;7457;50.960;6.830;2023-06-05T03:06:52;11.40;70.30
14733;DHT22;7457;50.960;6.830;2023-06-05T03:09:18;11.40;70.80
14733;DHT22;7457;50.960;6.830;2023-06-05T03:11:44;11.40;70.80
14733;DHT22;7457;50.960;6.830;2023-06-05T03:14:10;11.40;71.10
14733;DHT22;7457;50.960;6.830;2023-06-05T03:16:35;11.40;71.50
14733;DHT22;7457;50.960;6.830;2023-06-05T03:19:09;11.40;71.60
14733;DHT22;7457;50.960;6.830;2023-06-05T03:21:35;11.40;71.80
14733;DHT22;7457;50.960;6.830;2023-06-05T03:24:06;11.40;72.10
14733;DHT22;7457;50.960;6.830;2023-06-05T03:26:32;11.40;72.30
14733;DHT22;7457;50.960;6.830;2023-06-05T03:28:58;11.40;72.40
14733;DHT22;7457;50.960;6.830;2023-06-05T03:31:24;11.40;72.70
14733;DHT22;7457;50.960;6.830;2023-06-05T03:33:50;11.40;73.00
14733;DHT22;7457;50.960;6.830;2023-06-05T03:36:16;11.40;73.10
14733;DHT22;7457;50.960;6.830;2023-06-05T03:38:45;11.40;73.50
14733;DHT22;7457;50.960;6.830;2023-06-05T03:41:11;11.40;73.70
14733;DHT22;7457;50.960;6.830;2023-06-05T03:43:37;11.40;73.80
14733;DHT22;7457;50.960;6.830;2023-06-05T03:46:03;11.50;74.20
14733;DHT22;7457;50.960;6.830;2023-06-05T03:48:29;11.50;74.30
14733;DHT22;7457;50.960;6.830;2023-06-05T03:50:54;11.50;74.50
14733;DHT22;7457;50.960;6.830;2023-06-05T03:53:22;11.50;74.70
14733;DHT22;7457;50.960;6.830;2023-06-05T03:55:48;11.50;74.80
14733;DHT22;7457;50.960;6.830;2023-06-05T03:58:18;11.60;75.00
14733;DHT22;7457;50.960;6.830;2023-06-05T04:00:46;11.60;75.20
14733;DHT22;7457;50.960;6.830;2023-06-05T04:03:14;11.60;75.50
14733;DHT22;7457;50.960;6.830;2023-06-05T04:05:40;11.60;75.50
14733;DHT22;7457;50.960;6.830;2023-06-05T04:08:07;11.60;75.70
14733;DHT22;7457;50.960;6.830;2023-06-05T04:10:33;11.60;75.70
14733;DHT22;7457;50.960;6.830;2023-06-05T04:12:59;11.60;75.80
14733;DHT22;7457;50.960;6.830;2023-06-05T04:15:26;11.60;76.00
14733;DHT22;7457;50.960;6.830;2023-06-05T04:17:51;11.60;76.20
14733;DHT22;7457;50.960;6.830;2023-06-05T04:20:17;11.60;76.50
14733;DHT22;7457;50.960;6.830;2023-06-05T04:22:44;11.70;76.80
14733;DHT22;7457;50.960;6.830;2023-06-05T04:25:14;11.70;76.90
14733;DHT22;7457;50.960;6.830;2023-06-05T04:27:41;11.80;76.80
14733;DHT22;7457;50.960;6.830;2023-06-05T04:30:10;11.90;77.10
14733;DHT22;7457;50.960;6.830;2023-06-05T04:32:37;12.00;78.00
14733;DHT22;7457;50.960;6.830;2023-06-05T04:35:11;12.30;77.20
14733;DHT22;7457;50.960;6.830;2023-06-05T04:37:38;12.60;76.60
14733;DHT22;7457;50.960;6.830;2023-06-05T04:40:05;12.70;76.40
14733;DHT22;7457;50.960;6.830;2023-06-05T04:42:34;12.80;77.00
14733;DHT22;7457;50.960;6.830;2023-06-05T04:45:04;13.10;77.30
14733;DHT22;7457;50.960;6.830;2023-06-05T04:47:31;13.60;76.60
14733;DHT22;7457;50.960;6.830;2023-06-05T04:49:58;14.20;75.70
14733;DHT22;7457;50.960;6.830;2023-06-05T04:52:24;14.70;74.70
14733;DHT22;7457;50.960;6.830;2023-06-05T04:54:50;15.20;73.70
14733;DHT22;7457;50.960;6.830;2023-06-05T04:57:16;15.60;73.00
14733;DHT22;7457;50.960;6.830;2023-06-05T04:59:42;16.00;71.60
14733;DHT22;7457;50.960;6.830;2023-06-05T05:02:08;16.30;72.10
14733;DHT22;7457;50.960;6.830;2023-06-05T05:04:34;16.50;70.20
14733;DHT22;7457;50.960;6.830;2023-06-05T05:07:00;16.30;69.70
14733;DHT22;7457;50.960;6.830;2023-06-05T05:09:31;16.00;70.10
14733;DHT22;7457;50.960;6.830;2023-06-05T05:11:58;15.70;70.80
14733;DHT22;7457;50.960;6.830;2023-06-05T05:14:26;15.50;71.70
14733;DHT22;7457;50.960;6.830;2023-06-05T05:16:53;15.60;72.80
14733;DHT22;7457;50.960;6.830;2023-06-05T05:19:19;15.90;72.80
14733;DHT22;7457;50.960;6.830;2023-06-05T05:21:45;16.40;72.20
14733;DHT22;7457;50.960;6.830;2023-06-05T05:24:12;16.80;71.00
14733;DHT22;7457;50.960;6.830;2023-06-05T05:26:38;17.20;69.40
14733;DHT22;7457;50.960;6.830;2023-06-05T05:29:08;17.20;68.30
14733;DHT22;7457;50.960;6.830;2023-06-05T05:31:33;17.00;68.20
14733;DHT22;7457;50.960;6.830;2023-06-05T05:33:59;16.60;68.70
14733;DHT22;7457;50.960;6.830;2023-06-05T05:36:26;16.40;69.30
14733;DHT22;7457;50.960;6.830;2023-06-05T05:38:55;16.20;69.80
14733;DHT22;7457;50.960;6.830;2023-06-05T05:41:21;16.10;69.90
14733;DHT22;7457;50.960;6.830;2023-06-05T05:43:47;16.00;70.10
14733;DHT22;7457;50.960;6.830;2023-06-05T05:46:13;16.00;70.50
14733;DHT22;7457;50.960;6.830;2023-06-05T05:48:39;16.00;70.70
14733;DHT22;7457;50.960;6.830;2023-06-05T05:51:06;15.90;70.90
14733;DHT22;7457;50.960;6.830;2023-06-05T05:53:32;15.90;71.10
14733;DHT22;7457;50.960;6.830;2023-06-05T05:55:59;15.90;71.00
14733;DHT22;7457;50.960;6.830;2023-06-05T05:58:25;15.90;71.00
14733;DHT22;7457;50.960;6.830;2023-06-05T06:00:51;15.90;70.90
14733;DHT22;7457;50.960;6.830;2023-06-05T06:03:17;16.00;70.70
14733;DHT22;7457;50.960;6.830;2023-06-05T06:05:43;16.00;70.70
14733;DHT22;7457;50.960;6.830;2023-06-05T06:08:10;16.10;70.50
14733;DHT22;7457;50.960;6.830;2023-06-05T06:10:36;16.10;70.30
14733;DHT22;7457;50.960;6.830;2023-06-05T06:13:02;16.30;70.10
14733;DHT22;7457;50.960;6.830;2023-06-05T06:15:32;16.30;69.80
14733;DHT22;7457;50.960;6.830;2023-06-05T06:17:58;16.40;69.60
14733;DHT22;7457;50.960;6.830;2023-06-05T06:20:28;16.50;69.40
14733;DHT22;7457;50.960;6.830;2023-06-05T06:22:54;16.50;69.20
14733;DHT22;7457;50.960;6.830;2023-06-05T06:25:20;16.50;69.00
14733;DHT22;7457;50.960;6.830;2023-06-05T06:27:47;16.60;68.90
14733;DHT22;7457;50.960;6.830;2023-06-05T06:30:15;16.60;68.90
14733;DHT22;7457;50.960;6.830;2023-06-05T06:32:41;16.70;68.70
14733;DHT22;7457;50.960;6.830;2023-06-05T06:35:07;16.80;68.40
14733;DHT22;7457;50.960;6.830;2023-06-05T06:37:33;16.90;68.30
14733;DHT22;7457;50.960;6.830;2023-06-05T06:39:59;17.00;67.90
14733;DHT22;7457;50.960;6.830;2023-06-05T06:42:25;17.10;67.50
14733;DHT22;7457;50.960;6.830;2023-06-05T06:44:53;17.10;67.40
14733;DHT22;7457;50.960;6.830;2023-06-05T06:47:22;17.20;67.40
14733;DHT22;7457;50.960;6.830;2023-06-05T06:49:47;17.30;67.20
14733;DHT22;7457;50.960;6.830;2023-06-05T06:52:13;17.40;67.00
14733;DHT22;7457;50.960;6.830;2023-06-05T06:54:39;17.50;66.90
14733;DHT22;7457;50.960;6.830;2023-06-05T06:57:04;17.60;66.80
14733;DHT22;7457;50.960;6.830;2023-06-05T06:59:30;17.70;66.30
14733;DHT22;7457;50.960;6.830;2023-06-05T07:04:37;17.90;65.40
14733;DHT22;7457;50.960;6.830;2023-06-05T07:07:04;18.00;65.10
14733;DHT22;7457;50.960;6.830;2023-06-05T07:09:29;18.00;64.80
14733;DHT22;7457;50.960;6.830;2023-06-05T07:11:55;18.10;64.90
14733;DHT22;7457;50.960;6.830;2023-06-05T07:14:22;18.50;63.80
14733;DHT22;7457;50.960;6.830;2023-06-05T07:16:47;18.80;63.00
14733;DHT22;7457;50.960;6.830;2023-06-05T07:19:15;19.20;62.70
14733;DHT22;7457;50.960;6.830;2023-06-05T07:21:41;19.80;61.30
14733;DHT22;7457;50.960;6.830;2023-06-05T07:24:07;20.40;60.00
14733;DHT22;7457;50.960;6.830;2023-06-05T07:26:33;21.00;58.70
14733;DHT22;7457;50.960;6.830;2023-06-05T07:28:59;21.40;57.30
14733;DHT22;7457;50.960;6.830;2023-06-05T07:31:25;21.30;56.50
14733;DHT22;7457;50.960;6.830;2023-06-05T07:33:51;21.00;56.60
14733;DHT22;7457;50.960;6.830;2023-06-05T07:36:17;20.60;57.00
14733;DHT22;7457;50.960;6.830;2023-06-05T07:38:43;20.30;57.60
14733;DHT22;7457;50.960;6.830;2023-06-05T07:41:10;20.00;58.20
14733;DHT22;7457;50.960;6.830;2023-06-05T07:43:37;19.80;58.70
14733;DHT22;7457;50.960;6.830;2023-06-05T07:46:05;19.60;59.10
14733;DHT22;7457;50.960;6.830;2023-06-05T07:48:31;19.50;59.60
14733;DHT22;7457;50.960;6.830;2023-06-05T07:50:57;19.40;59.80
14733;DHT22;7457;50.960;6.830;2023-06-05T07:53:22;19.40;60.10
14733;DHT22;7457;50.960;6.830;2023-06-05T07:55:48;19.40;60.20
14733;DHT22;7457;50.960;6.830;2023-06-05T07:58:15;19.40;60.10
14733;DHT22;7457;50.960;6.830;2023-06-05T08:00:42;19.50;60.20
14733;DHT22;7457;50.960;6.830;2023-06-05T08:03:08;19.60;60.10
14733;DHT22;7457;50.960;6.830;2023-06-05T08:05:34;19.70;59.70
14733;DHT22;7457;50.960;6.830;2023-06-05T08:08:01;19.90;59.50
14733;DHT22;7457;50.960;6.830;2023-06-05T08:10:28;20.10;59.00
14733;DHT22;7457;50.960;6.830;2023-06-05T08:12:53;20.30;59.00
14733;DHT22;7457;50.960;6.830;2023-06-05T08:15:19;20.30;59.00
14733;DHT22;7457;50.960;6.830;2023-06-05T08:17:44;20.20;59.10
14733;DHT22;7457;50.960;6.830;2023-06-05T08:20:10;20.30;59.00
14733;DHT22;7457;50.960;6.830;2023-06-05T08:22:36;20.30;59.00
14733;DHT22;7457;50.960;6.830;2023-06-05T08:25:06;20.40;59.00
14733;DHT22;7457;50.960;6.830;2023-06-05T08:27:32;20.60;58.80
14733;DHT22;7457;50.960;6.830;2023-06-05T08:30:04;20.70;58.60
14733;DHT22;7457;50.960;6.830;2023-06-05T08:32:30;20.80;58.40
14733;DHT22;7457;50.960;6.830;2023-06-05T08:34:55;21.00;58.50
14733;DHT22;7457;50.960;6.830;2023-06-05T08:37:21;21.10;58.60
14733;DHT22;7457;50.960;6.830;2023-06-05T08:39:47;21.30;58.40
14733;DHT22;7457;50.960;6.830;2023-06-05T08:42:13;21.50;58.20
14733;DHT22;7457;50.960;6.830;2023-06-05T08:44:46;21.60;58.00
14733;DHT22;7457;50.960;6.830;2023-06-05T08:47:14;21.90;58.10
14733;DHT22;7457;50.960;6.830;2023-06-05T08:49:41;22.20;57.40
14733;DHT22;7457;50.960;6.830;2023-06-05T08:52:07;22.40;56.70
14733;DHT22;7457;50.960;6.830;2023-06-05T08:54:40;22.60;56.40
14733;DHT22;7457;50.960;6.830;2023-06-05T08:57:07;22.90;56.00
14733;DHT22;7457;50.960;6.830;2023-06-05T08:59:33;23.10;55.50
14733;DHT22;7457;50.960;6.830;2023-06-05T09:01:59;23.40;55.20
14733;DHT22;7457;50.960;6.830;2023-06-05T09:04:25;23.60;55.30
14733;DHT22;7457;50.960;6.830;2023-06-05T09:06:56;24.20;54.10
14733;DHT22;7457;50.960;6.830;2023-06-05T09:09:22;25.00;52.70
14733;DHT22;7457;50.960;6.830;2023-06-05T09:12:01;25.80;51.70
14733;DHT22;7457;50.960;6.830;2023-06-05T09:14:26;26.60;49.50
14733;DHT22;7457;50.960;6.830;2023-06-05T09:16:52;27.10;49.00
14733;DHT22;7457;50.960;6.830;2023-06-05T09:19:18;27.60;47.50
14733;DHT22;7457;50.960;6.830;2023-06-05T09:21:54;27.90;46.80
14733;DHT22;7457;50.960;6.830;2023-06-05T09:24:23;28.10;45.80
14733;DHT22;7457;50.960;6.830;2023-06-05T09:27:01;28.30;45.30
14733;DHT22;7457;50.960;6.830;2023-06-05T09:29:33;28.50;44.60
14733;DHT22;7457;50.960;6.830;2023-06-05T09:32:03;28.70;44.40
14733;DHT22;7457;50.960;6.830;2023-06-05T09:34:38;29.00;44.00
14733;DHT22;7457;50.960;6.830;2023-06-05T09:37:09;29.30;43.70
14733;DHT22;7457;50.960;6.830;2023-06-05T09:39:37;29.60;43.30
14733;DHT22;7457;50.960;6.830;2023-06-05T09:42:03;29.90;42.30
14733;DHT22;7457;50.960;6.830;2023-06-05T09:44:30;30.10;42.10
14733;DHT22;7457;50.960;6.830;2023-06-05T09:47:00;30.20;41.60
14733;DHT22;7457;50.960;6.830;2023-06-05T09:49:28;30.30;40.70
14733;DHT22;7457;50.960;6.830;2023-06-05T09:51:55;30.30;40.50
14733;DHT22;7457;50.960;6.830;2023-06-05T09:54:21;30.30;40.20
14733;DHT22;7457;50.960;6.830;2023-06-05T09:56:48;30.40;40.10
14733;DHT22;7457;50.960;6.830;2023-06-05T09:59:30;30.60;39.80
14733;DHT22;7457;50.960;6.830;2023-06-05T10:02:17;30.70;39.70
14733;DHT22;7457;50.960;6.830;2023-06-05T10:04:48;30.90;39.80
14733;DHT22;7457;50.960;6.830;2023-06-05T10:07:15;31.00;39.30
14733;DHT22;7457;50.960;6.830;2023-06-05T10:09:41;31.10;38.70
14733;DHT22;7457;50.960;6.830;2023-06-05T10:12:07;31.10;38.50
14733;DHT22;7457;50.960;6.830;2023-06-05T10:14:40;31.10;38.90
14733;DHT22;7457;50.960;6.830;2023-06-05T10:17:07;31.10;39.00
14733;DHT22;7457;50.960;6.830;2023-06-05T10:19:32;31.00;39.00
14733;DHT22;7457;50.960;6.830;2023-06-05T10:21:58;31.00;38.80
14733;DHT22;7457;50.960;6.830;2023-06-05T10:24:31;31.10;38.00
14733;DHT22;7457;50.960;6.830;2023-06-05T10:38:27;31.20;35.80
14733;DHT22;7457;50.960;6.830;2023-06-05T10:40:58;31.20;36.40
14733;DHT22;7457;50.960;6.830;2023-06-05T10:46:02;31.10;35.90
14733;DHT22;7457;50.960;6.830;2023-06-05T10:51:49;31.20;36.50
14733;DHT22;7457;50.960;6.830;2023-06-05T11:07:19;31.10;36.50
14733;DHT22;7457;50.960;6.830;2023-06-05T11:17:43;30.80;35.30
14733;DHT22;7457;50.960;6.830;2023-06-05T11:28:03;29.30;35.80
14733;DHT22;7457;50.960;6.830;2023-06-05T11:30:42;29.40;34.80
14733;DHT22;7457;50.960;6.830;2023-06-05T11:33:16;29.50;34.20
14733;DHT22;7457;50.960;6.830;2023-06-05T11:35:44;29.40;33.90
14733;DHT22;7457;50.960;6.830;2023-06-05T11:40:41;29.50;35.60
14733;DHT22;7457;50.960;6.830;2023-06-05T11:43:12;29.70;34.80
14733;DHT22;7457;50.960;6.830;2023-06-05T11:45:39;29.70;33.20
14733;DHT22;7457;50.960;6.830;2023-06-05T11:48:12;29.60;34.00
14733;DHT22;7457;50.960;6.830;2023-06-05T11:53:17;29.90;36.10
14733;DHT22;7457;50.960;6.830;2023-06-05T11:55:43;30.20;35.90
14733;DHT22;7457;50.960;6.830;2023-06-05T11:58:21;30.40;35.00
14733;DHT22;7457;50.960;6.830;2023-06-05T12:00:47;30.50;34.00
14733;DHT22;7457;50.960;6.830;2023-06-05T12:03:19;30.50;34.30
14733;DHT22;7457;50.960;6.830;2023-06-05T12:05:49;30.60;34.10
14733;DHT22;7457;50.960;6.830;2023-06-05T12:08:31;30.70;34.80
14733;DHT22;7457;50.960;6.830;2023-06-05T12:10:59;30.80;34.60
14733;DHT22;7457;50.960;6.830;2023-06-05T12:13:47;30.90;35.40
14733;DHT22;7457;50.960;6.830;2023-06-05T12:16:13;31.00;34.90
14733;DHT22;7457;50.960;6.830;2023-06-05T12:18:39;31.00;34.90
14733;DHT22;7457;50.960;6.830;2023-06-05T12:21:05;31.00;35.80
14733;DHT22;7457;50.960;6.830;2023-06-05T12:23:31;31.00;34.10
14733;DHT22;7457;50.960;6.830;2023-06-05T12:26:02;30.80;33.70
14733;DHT22;7457;50.960;6.830;2023-06-05T12:28:29;30.60;32.50
14733;DHT22;7457;50.960;6.830;2023-06-05T12:30:56;30.10;32.40
14733;DHT22;7457;50.960;6.830;2023-06-05T12:33:23;29.80;33.20
14733;DHT22;7457;50.960;6.830;2023-06-05T12:36:06;29.50;33.90
14733;DHT22;7457;50.960;6.830;2023-06-05T12:38:42;29.20;33.70
14733;DHT22;7457;50.960;6.830;2023-06-05T12:41:08;28.90;34.10
14733;DHT22;7457;50.960;6.830;2023-06-05T12:43:35;28.70;34.70
14733;DHT22;7457;50.960;6.830;2023-06-05T12:46:01;28.60;34.90
14733;DHT22;7457;50.960;6.830;2023-06-05T12:48:27;28.50;34.90
14733;DHT22;7457;50.960;6.830;2023-06-05T12:50:53;28.40;34.80
14733;DHT22;7457;50.960;6.830;2023-06-05T12:53:19;28.30;34.90
14733;DHT22;7457;50.960;6.830;2023-06-05T12:55:45;28.30;35.40
14733;DHT22;7457;50.960;6.830;2023-06-05T12:58:11;28.30;35.60
14733;DHT22;7457;50.960;6.830;2023-06-05T13:00:36;28.20;35.50
14733;DHT22;7457;50.960;6.830;2023-06-05T13:03:02;28.20;35.30
14733;DHT22;7457;50.960;6.830;2023-06-05T13:05:32;28.10;35.10
14733;DHT22;7457;50.960;6.830;2023-06-05T13:07:58;28.00;35.30
14733;DHT22;7457;50.960;6.830;2023-06-05T13:10:24;28.00;35.50
14733;DHT22;7457;50.960;6.830;2023-06-05T13:12:50;28.00;35.40
14733;DHT22;7457;50.960;6.830;2023-06-05T13:15:16;27.90;35.70
14733;DHT22;7457;50.960;6.830;2023-06-05T13:17:42;27.90;35.70
14733;DHT22;7457;50.960;6.830;2023-06-05T13:20:09;27.80;35.60
14733;DHT22;7457;50.960;6.830;2023-06-05T13:22:39;27.70;35.80
14733;DHT22;7457;50.960;6.830;2023-06-05T13:25:06;27.70;36.30
14733;DHT22;7457;50.960;6.830;2023-06-05T13:27:32;27.70;36.20
14733;DHT22;7457;50.960;6.830;2023-06-05T13:29:58;27.70;36.50
14733;DHT22;7457;50.960;6.830;2023-06-05T13:32:24;27.60;36.70
14733;DHT22;7457;50.960;6.830;2023-06-05T13:34:50;27.60;37.00
14733;DHT22;7457;50.960;6.830;2023-06-05T13:37:16;27.70;36.90
14733;DHT22;7457;50.960;6.830;2023-06-05T13:39:41;27.70;36.90
14733;DHT22;7457;50.960;6.830;2023-06-05T13:42:07;27.60;36.60
14733;DHT22;7457;50.960;6.830;2023-06-05T13:44:34;27.60;36.50
14733;DHT22;7457;50.960;6.830;2023-06-05T13:47:00;27.60;36.60
14733;DHT22;7457;50.960;6.830;2023-06-05T13:49:29;27.50;36.50
14733;DHT22;7457;50.960;6.830;2023-06-05T13:51:55;27.50;36.80
14733;DHT22;7457;50.960;6.830;2023-06-05T13:54:20;27.40;36.90
14733;DHT22;7457;50.960;6.830;2023-06-05T13:56:46;27.30;37.00
14733;DHT22;7457;50.960;6.830;2023-06-05T13:59:12;27.30;37.10
14733;DHT22;7457;50.960;6.830;2023-06-05T14:01:37;27.30;37.30
14733;DHT22;7457;50.960;6.830;2023-06-05T14:04:03;27.20;37.10
14733;DHT22;7457;50.960;6.830;2023-06-05T14:06:28;27.20;37.20
14733;DHT22;7457;50.960;6.830;2023-06-05T14:08:54;27.20;37.00
14733;DHT22;7457;50.960;6.830;2023-06-05T14:11:20;27.20;37.10
14733;DHT22;7457;50.960;6.830;2023-06-05T14:13:46;27.20;37.10
14733;DHT22;7457;50.960;6.830;2023-06-05T14:16:11;27.10;37.10
14733;DHT22;7457;50.960;6.830;2023-06-05T14:18:38;27.10;37.10
14733;DHT22;7457;50.960;6.830;2023-06-05T14:21:04;27.10;36.90
14733;DHT22;7457;50.960;6.830;2023-06-05T14:23:30;27.10;37.00
14733;DHT22;7457;50.960;6.830;2023-06-05T14:25:55;27.10;37.10
14733;DHT22;7457;50.960;6.830;2023-06-05T14:28:21;27.00;37.10
14733;DHT22;7457;50.960;6.830;2023-06-05T14:30:48;27.00;37.10
14733;DHT22;7457;50.960;6.830;2023-06-05T14:33:13;27.00;37.00
14733;DHT22;7457;50.960;6.830;2023-06-05T14:35:40;27.00;37.10
14733;DHT22;7457;50.960;6.830;2023-06-05T14:38:05;27.00;37.10
14733;DHT22;7457;50.960;6.830;2023-06-05T14:40:31;27.00;37.00
14733;DHT22;7457;50.960;6.830;2023-06-05T14:42:58;27.00;37.10
14733;DHT22;7457;50.960;6.830;2023-06-05T14:45:24;27.00;37.40
14733;DHT22;7457;50.960;6.830;2023-06-05T14:47:50;27.00;37.40
14733;DHT22;7457;50.960;6.830;2023-06-05T14:50:16;27.00;37.10
14733;DHT22;7457;50.960;6.830;2023-06-05T14:52:42;27.00;37.00
14733;DHT22;7457;50.960;6.830;2023-06-05T14:55:08;27.00;37.20
14733;DHT22;7457;50.960;6.830;2023-06-05T14:57:35;26.90;37.40
14733;DHT22;7457;50.960;6.830;2023-06-05T15:00:03;27.00;37.20
14733;DHT22;7457;50.960;6.830;2023-06-05T15:02:30;26.90;37.10
14733;DHT22;7457;50.960;6.830;2023-06-05T15:04:56;26.90;37.10
14733;DHT22;7457;50.960;6.830;2023-06-05T15:07:24;26.90;37.10
14733;DHT22;7457;50.960;6.830;2023-06-05T15:09:50;26.80;37.10
14733;DHT22;7457;50.960;6.830;2023-06-05T15:12:19;26.80;37.00
14733;DHT22;7457;50.960;6.830;2023-06-05T15:14:44;26.80;37.20
14733;DHT22;7457;50.960;6.830;2023-06-05T15:17:10;26.70;37.00
14733;DHT22;7457;50.960;6.830;2023-06-05T15:19:36;26.70;37.20
14733;DHT22;7457;50.960;6.830;2023-06-05T15:22:02;26.70;37.20
14733;DHT22;7457;50.960;6.830;2023-06-05T15:24:27;26.70;37.00
14733;DHT22;7457;50.960;6.830;2023-06-05T15:26:53;26.70;37.10
14733;DHT22;7457;50.960;6.830;2023-06-05T15:29:20;26.60;37.20
14733;DHT22;7457;50.960;6.830;2023-06-05T15:31:46;26.60;37.10
14733;DHT22;7457;50.960;6.830;2023-06-05T15:34:12;26.60;37.00
14733;DHT22;7457;50.960;6.830;2023-06-05T15:36:37;26.50;37.20
14733;DHT22;7457;50.960;6.830;2023-06-05T15:39:03;26.40;37.10
14733;DHT22;7457;50.960;6.830;2023-06-05T15:41:30;26.40;36.90
14733;DHT22;7457;50.960;6.830;2023-06-05T15:43:56;26.30;36.60
14733;DHT22;7457;50.960;6.830;2023-06-05T15:46:22;26.20;36.70
14733;DHT22;7457;50.960;6.830;2023-06-05T15:48:48;26.10;36.90
14733;DHT22;7457;50.960;6.830;2023-06-05T15:51:15;26.00;36.90
14733;DHT22;7457;50.960;6.830;2023-06-05T15:53:40;26.00;36.90
14733;DHT22;7457;50.960;6.830;2023-06-05T15:56:06;25.90;37.20
14733;DHT22;7457;50.960;6.830;2023-06-05T15:58:32;25.90;37.00
14733;DHT22;7457;50.960;6.830;2023-06-05T16:00:58;25.90;37.00
14733;DHT22;7457;50.960;6.830;2023-06-05T16:03:23;25.90;36.80
14733;DHT22;7457;50.960;6.830;2023-06-05T16:05:49;25.90;36.90
14733;DHT22;7457;50.960;6.830;2023-06-05T16:08:15;25.80;36.90
14733;DHT22;7457;50.960;6.830;2023-06-05T16:10:42;25.80;37.00
14733;DHT22;7457;50.960;6.830;2023-06-05T16:13:08;25.80;37.00
14733;DHT22;7457;50.960;6.830;2023-06-05T16:15:36;25.80;37.20
14733;DHT22;7457;50.960;6.830;2023-06-05T16:18:02;25.80;37.20
14733;DHT22;7457;50.960;6.830;2023-06-05T16:20:27;25.80;37.30
14733;DHT22;7457;50.960;6.830;2023-06-05T16:22:53;25.80;37.10
14733;DHT22;7457;50.960;6.830;2023-06-05T16:25:19;25.70;37.20
14733;DHT22;7457;50.960;6.830;2023-06-05T16:27:44;25.70;37.40
14733;DHT22;7457;50.960;6.830;2023-06-05T16:30:10;25.70;37.30
14733;DHT22;7457;50.960;6.830;2023-06-05T16:32:36;25.70;37.20
14733;DHT22;7457;50.960;6.830;2023-06-05T16:35:02;25.70;37.10
14733;DHT22;7457;50.960;6.830;2023-06-05T16:37:28;25.70;36.90
14733;DHT22;7457;50.960;6.830;2023-06-05T16:39:56;25.70;37.00
14733;DHT22;7457;50.960;6.830;2023-06-05T16:42:24;25.60;37.20
14733;DHT22;7457;50.960;6.830;2023-06-05T16:44:49;25.60;37.40